Time;durP1;ratioP1;P1;durP2;ratioP2;P2;SDS_P1;SDS_P2;PMS_P1;PMS_P2;Temp;Humidity;BMP_temperature;BMP_pressure;BME280_temperature;BME280_humidity;BME280_pressure;Samples;Min_cycle;Max_cycle;Signal;HPM_P1;HPM_P2
2023/08/03 00:00:09;;;;;;;4.10;1.23;;;;;;;13.76;100.00;99159.41;4968375;28;20218;-86
2023/08/03 00:02:34;;;;;;;4.63;1.00;;;;;;;13.19;100.00;99008.47;4971336;28;20284;-85
2023/08/03 00:05:03;;;;;;;3.00;0.93;;;;;;;13.27;100.00;99016.91;4972952;28;20448;-86
2023/08/03 00:07:29;;;;;;;3.87;1.43;;;;;;;14.87;100.00;99295.09;4971413;28;20194;-84
2023/08/03 00:09:54;;;;;;;1.90;0.80;;;;;;;13.25;100.00;98992.13;4970578;28;20475;-85
2023/08/03 00:12:20;;;;;;;5.60;1.00;;;;;;;15.04;100.00;99321.88;4972738;28;20570;-87
2023/08/03 00:14:45;;;;;;;3.70;1.10;;;;;;;15.50;100.00;99389.53;4974048;28;20187;-86
2023/08/03 00:17:11;;;;;;;2.97;0.80;;;;;;;14.14;100.00;99191.69;4973672;28;20245;-85
2023/08/03 00:19:36;;;;;;;2.20;0.80;;;;;;;13.46;100.00;99079.22;4975953;28;20223;-85
2023/08/03 00:22:02;;;;;;;3.63;0.90;;;;;;;14.27;100.00;99201.19;4985193;28;20190;-87
2023/08/03 00:24:27;;;;;;;4.50;0.90;;;;;;;14.63;100.00;99286.59;4974570;28;20190;-86
2023/08/03 00:26:53;;;;;;;3.20;0.80;;;;;;;14.13;100.00;99225.91;4972486;28;20244;-87
2023/08/03 00:29:18;;;;;;;4.57;1.20;;;;;;;13.17;100.00;98999.88;4969988;28;20214;-86
2023/08/03 00:31:44;;;;;;;5.30;1.13;;;;;;;14.37;100.00;99226.28;4973243;28;20193;-86
2023/08/03 00:34:09;;;;;;;4.13;1.53;;;;;;;13.49;100.00;99085.97;4972381;28;20654;-85
2023/08/03 00:36:34;;;;;;;3.90;0.87;;;;;;;14.21;100.00;99193.06;4971614;28;20817;-84
2023/08/03 00:39:00;;;;;;;5.80;1.00;;;;;;;14.48;100.00;99240.66;4974315;28;20673;-87
2023/08/03 00:41:25;;;;;;;2.03;0.83;;;;;;;15.25;100.00;99371.38;4965581;28;20205;-85
2023/08/03 00:43:51;;;;;;;2.27;0.83;;;;;;;15.50;100.00;99419.25;4973762;28;21189;-86
2023/08/03 00:46:16;;;;;;;2.90;1.20;;;;;;;14.84;100.00;99284.81;4975489;28;20264;-85
2023/08/03 00:48:42;;;;;;;1.87;0.90;;;;;;;14.14;100.00;99224.03;4969696;28;20678;-84
2023/08/03 00:51:07;;;;;;;3.57;1.00;;;;;;;13.50;100.00;99087.59;4969902;28;20194;-87
2023/08/03 00:53:33;;;;;;;2.50;0.77;;;;;;;13.26;100.00;98991.06;4971170;28;20216;-89
2023/08/03 00:55:58;;;;;;;4.33;1.17;;;;;;;13.53;100.00;99122.88;4970496;28;21173;-85
2023/08/03 00:58:24;;;;;;;1.97;0.83;;;;;;;15.90;100.00;99466.41;4970558;28;20193;-85
2023/08/03 01:00:49;;;;;;;4.30;1.10;;;;;;;13.77;100.00;99162.94;4974127;28;20209;-82
2023/08/03 01:03:15;;;;;;;2.83;0.90;;;;;;;13.26;100.00;99023.34;4974864;28;20226;-88
2023/08/03 01:05:40;;;;;;;2.60;0.90;;;;;;;15.09;100.00;99342.66;4973622;28;20199;-87
2023/08/03 01:08:06;;;;;;;5.33;1.00;;;;;;;13.74;100.00;99118.44;4976235;28;20190;-86
2023/08/03 01:10:31;;;;;;;3.80;0.90;;;;;;;14.18;100.00;99242.13;4978251;28;20248;-87
2023/08/03 01:12:57;;;;;;;4.00;0.93;;;;;;;13.48;100.00;99085.16;4973772;28;20190;-87
2023/08/03 01:15:23;;;;;;;2.00;0.90;;;;;;;13.20;100.00;99027.06;4973353;28;20302;-90
2023/08/03 01:17:48;;;;;;;3.30;1.17;;;;;;;13.68;100.00;99145.59;4972285;28;20194;-87
2023/08/03 01:20:18;;;;;;;3.17;1.20;;;;;;;15.12;100.00;99345.66;4969293;28;21169;-85
2023/08/03 01:22:43;;;;;;;3.67;1.77;;;;;;;15.37;100.00;99360.31;4967517;28;20229;-86
2023/08/03 01:25:10;;;;;;;5.10;1.27;;;;;;;16.02;100.00;99480.50;4974242;28;20925;-91
2023/08/03 01:27:35;;;;;;;2.53;0.90;;;;;;;15.30;100.00;99376.78;4981053;28;20276;-89
2023/08/03 01:30:01;;;;;;;3.70;1.03;;;;;;;15.15;100.00;99384.81;4972481;28;20548;-84
2023/08/03 01:32:26;;;;;;;3.97;1.10;;;;;;;13.43;100.00;99157.03;4971896;28;20186;-84
2023/08/03 01:34:52;;;;;;;6.93;1.17;;;;;;;14.47;100.00;99319.97;4976619;28;20186;-86
2023/08/03 01:37:18;;;;;;;4.93;1.37;;;;;;;12.96;100.00;99045.47;4971481;28;20593;-84
2023/08/03 01:39:47;;;;;;;2.27;0.97;;;;;;;14.14;100.00;99294.94;4970661;28;20301;-84
2023/08/03 01:42:13;;;;;;;4.10;1.00;;;;;;;13.15;100.00;99088.94;4968459;28;20452;-86
2023/08/03 01:44:40;;;;;;;8.53;1.03;;;;;;;13.69;100.00;99226.19;4970759;28;20448;-85
2023/08/03 01:47:05;;;;;;;1.73;0.87;;;;;;;15.95;100.00;99547.56;4968654;28;20480;-83
2023/08/03 01:49:33;;;;;;;3.43;1.40;;;;;;;14.76;100.00;99370.88;4964903;28;20842;-89
2023/08/03 01:51:58;;;;;;;3.90;1.17;;;;;;;14.76;100.00;99376.28;4970237;28;20213;-87
2023/08/03 01:54:24;;;;;;;2.70;0.83;;;;;;;13.84;100.00;99270.47;4972700;28;20438;-87
2023/08/03 01:56:50;;;;;;;2.83;1.00;;;;;;;13.42;100.00;99201.97;4970387;28;20217;-87
2023/08/03 01:59:15;;;;;;;2.57;1.23;;;;;;;13.06;100.00;99130.88;4978706;28;20690;-86
2023/08/03 02:01:41;;;;;;;2.50;0.80;;;;;;;14.26;100.00;99364.84;4971474;28;20202;-83
2023/08/03 02:04:06;;;;;;;3.97;1.03;;;;;;;15.33;100.00;99519.44;4973604;28;20249;-85
2023/08/03 02:06:32;;;;;;;4.33;1.50;;;;;;;14.14;100.00;99340.78;4979541;28;20217;-88
2023/08/03 02:08:58;;;;;;;1.80;0.80;;;;;;;13.38;100.00;99203.56;4972765;28;20202;-88
2023/08/03 02:11:24;;;;;;;2.07;1.00;;;;;;;13.65;100.00;99235.03;4973207;28;20448;-88
2023/08/03 02:13:49;;;;;;;3.30;1.03;;;;;;;14.08;100.00;99373.34;4969794;28;20340;-88
2023/08/03 02:16:15;;;;;;;4.00;1.17;;;;;;;13.99;100.00;99375.72;4973801;28;20953;-87
2023/08/03 02:18:40;;;;;;;1.70;0.70;;;;;;;15.04;100.00;99523.56;4974065;28;20202;-86
2023/08/03 02:21:07;;;;;;;2.30;1.03;;;;;;;15.01;100.00;99446.59;4974195;28;20191;-89
2023/08/03 02:23:32;;;;;;;1.60;0.90;;;;;;;14.65;100.00;99419.41;4968245;28;20246;-86
2023/08/03 02:25:59;;;;;;;2.67;1.00;;;;;;;15.39;100.00;99568.91;4969331;28;20460;-88
2023/08/03 02:28:24;;;;;;;3.33;1.03;;;;;;;15.31;100.00;99540.50;4969461;28;20277;-85
2023/08/03 02:30:50;;;;;;;3.70;0.87;;;;;;;15.04;100.00;99505.50;4968972;28;20461;-88
2023/08/03 02:33:15;;;;;;;3.03;1.33;;;;;;;13.75;100.00;99299.78;4969899;28;20199;-90
2023/08/03 02:35:41;;;;;;;2.30;1.10;;;;;;;13.16;100.00;99206.31;4970090;28;20446;-86
2023/08/03 02:38:07;;;;;;;2.73;1.00;;;;;;;13.87;100.00;99354.31;4970591;28;20205;-86
2023/08/03 02:40:32;;;;;;;3.93;1.20;;;;;;;14.29;100.00;99420.16;4965967;28;20206;-84
2023/08/03 02:42:58;;;;;;;3.43;0.83;;;;;;;13.60;100.00;99319.34;4975876;28;20511;-84
2023/08/03 02:45:23;;;;;;;1.70;1.07;;;;;;;15.08;100.00;99533.59;4970501;28;20190;-85
2023/08/03 02:47:49;;;;;;;1.73;0.93;;;;;;;14.37;100.00;99450.19;4968871;28;20573;-85
2023/08/03 02:50:14;;;;;;;1.70;0.90;;;;;;;14.01;100.00;99378.97;4968992;28;20272;-84
2023/08/03 02:52:40;;;;;;;2.60;1.00;;;;;;;16.11;100.00;99667.41;4968659;28;20193;-84
2023/08/03 02:55:06;;;;;;;2.87;1.20;;;;;;;13.68;100.00;99272.22;4971797;28;20236;-85
2023/08/03 02:57:31;;;;;;;2.00;0.83;;;;;;;14.01;100.00;99341.22;4970689;28;20224;-83
2023/08/03 02:59:56;;;;;;;2.93;0.90;;;;;;;14.68;100.00;99447.75;4971349;28;20271;-86
2023/08/03 03:02:22;;;;;;;2.33;0.77;;;;;;;14.46;100.00;99443.25;4971480;28;20190;-85
2023/08/03 03:04:49;;;;;;;1.63;0.70;;;;;;;13.37;100.00;99296.22;4974976;28;20924;-82
2023/08/03 03:07:15;;;;;;;6.23;0.90;;;;;;;13.81;100.00;99392.28;4971104;28;20186;-81
2023/08/03 03:09:40;;;;;;;1.40;0.73;;;;;;;14.77;100.00;99532.56;4970963;28;20980;-84
2023/08/03 03:12:06;;;;;;;1.27;0.70;;;;;;;12.94;100.00;99217.16;4969770;28;20626;-81
2023/08/03 03:14:32;;;;;;;1.77;0.60;;;;;;;15.27;100.00;99623.09;4972248;28;20195;-83
2023/08/03 03:16:57;;;;;;;2.37;0.80;;;;;;;14.78;100.00;99542.31;4969303;28;20477;-84
2023/08/03 03:19:22;;;;;;;1.80;0.70;;;;;;;15.16;100.00;99616.03;4974330;28;20708;-84
2023/08/03 03:21:48;;;;;;;1.60;0.73;;;;;;;13.30;100.00;99282.13;4974749;28;20685;-85
2023/08/03 03:24:13;;;;;;;2.60;0.60;;;;;;;13.07;100.00;99264.38;4971039;28;20201;-84
2023/08/03 03:26:39;;;;;;;1.20;0.60;;;;;;;14.50;100.00;99550.66;4972266;28;20190;-84
2023/08/03 03:29:04;;;;;;;1.83;0.60;;;;;;;13.53;100.00;99413.00;4971423;28;20237;-85
2023/08/03 03:31:30;;;;;;;1.30;0.57;;;;;;;14.24;100.00;99524.25;4971471;28;20198;-83
2023/08/03 03:33:55;;;;;;;1.10;0.60;;;;;;;14.28;100.00;99515.66;4971701;28;20191;-86
2023/08/03 03:36:21;;;;;;;2.70;0.80;;;;;;;14.12;100.00;99468.84;4967764;28;20582;-84
2023/08/03 03:38:46;;;;;;;1.10;0.60;;;;;;;16.02;100.00;99832.09;4969335;28;20209;-85
2023/08/03 03:41:11;;;;;;;1.30;0.60;;;;;;;13.98;100.00;99493.53;4970315;28;20191;-86
2023/08/03 03:43:37;;;;;;;1.40;0.70;;;;;;;14.00;100.00;99509.41;4970289;28;20194;-89
2023/08/03 03:46:02;;;;;;;1.30;0.70;;;;;;;13.66;100.00;99415.31;4967841;28;20214;-87
2023/08/03 03:48:28;;;;;;;1.67;0.60;;;;;;;16.03;100.00;99833.75;4968463;28;20198;-85
2023/08/03 03:50:54;;;;;;;6.53;0.90;;;;;;;14.39;100.00;99579.41;4968243;28;20197;-86
2023/08/03 03:53:20;;;;;;;1.30;0.60;;;;;;;16.16;100.00;99848.69;4969154;28;20469;-85
2023/08/03 03:55:45;;;;;;;2.07;0.90;;;;;;;14.85;100.00;99634.66;4967356;28;20209;-84
2023/08/03 03:58:11;;;;;;;1.50;0.93;;;;;;;15.05;100.00;99677.25;4966785;28;20617;-85
2023/08/03 04:00:40;;;;;;;1.23;0.80;;;;;;;13.72;100.00;99503.22;4966394;28;20210;-86
2023/08/03 04:03:07;;;;;;;1.93;0.70;;;;;;;13.56;100.00;99437.53;4970543;28;20186;-83
2023/08/03 04:05:34;;;;;;;1.40;0.70;;;;;;;14.21;100.00;99573.31;4974250;28;20500;-83
2023/08/03 04:08:00;;;;;;;2.37;0.80;;;;;;;14.60;100.00;99610.13;4969360;28;20455;-85
2023/08/03 04:10:25;;;;;;;3.60;0.90;;;;;;;14.44;100.00;99563.28;4967458;28;20493;-88
2023/08/03 04:12:51;;;;;;;3.93;1.00;;;;;;;14.26;100.00;99615.69;4966533;28;20197;-86
2023/08/03 04:15:16;;;;;;;2.10;0.80;;;;;;;13.53;100.00;99456.09;4964989;28;20248;-86
2023/08/03 04:17:45;;;;;;;2.93;1.10;;;;;;;15.26;100.00;99780.88;4966814;28;20216;-86
2023/08/03 04:20:11;;;;;;;1.73;0.80;;;;;;;15.37;100.00;99779.09;4970455;28;20616;-85
2023/08/03 04:22:36;;;;;;;1.70;0.90;;;;;;;13.67;100.00;99481.59;4976387;28;20452;-84
2023/08/03 04:25:03;;;;;;;1.50;0.83;;;;;;;16.24;100.00;99869.06;4973110;28;20441;-86
2023/08/03 04:27:28;;;;;;;1.63;0.80;;;;;;;13.77;100.00;99483.59;4971497;28;20186;-85
2023/08/03 04:29:54;;;;;;;1.40;0.83;;;;;;;14.55;100.00;99664.03;4974672;28;20514;-87
2023/08/03 04:32:19;;;;;;;1.40;0.80;;;;;;;15.95;100.00;99847.75;4976309;28;20566;-85
2023/08/03 04:34:45;;;;;;;1.40;0.90;;;;;;;14.53;100.00;99637.31;4971482;28;20228;-87
2023/08/03 04:37:10;;;;;;;3.30;1.50;;;;;;;14.69;100.00;99647.22;4972570;28;20849;-84
2023/08/03 04:39:36;;;;;;;4.23;1.33;;;;;;;15.46;100.00;99803.75;4970095;28;20225;-86
2023/08/03 04:42:01;;;;;;;1.93;0.93;;;;;;;13.43;100.00;99413.72;4975760;28;20585;-86
2023/08/03 04:44:27;;;;;;;2.70;1.20;;;;;;;14.18;100.00;99562.22;4974077;28;20570;-85
2023/08/03 04:49:38;;;;;;;2.20;1.20;;;;;;;15.11;100.00;99699.72;4959018;28;20891;-85
2023/08/03 04:52:04;;;;;;;1.50;0.90;;;;;;;15.34;100.00;99749.88;4968691;28;20461;-85
2023/08/03 04:54:30;;;;;;;1.30;0.80;;;;;;;14.97;100.00;99698.50;4973465;28;20201;-85
2023/08/03 04:56:55;;;;;;;3.03;0.90;;;;;;;13.65;100.00;99475.63;4969597;28;20465;-86
2023/08/03 04:59:21;;;;;;;3.20;1.00;;;;;;;13.94;100.00;99538.25;4968199;28;20239;-84
2023/08/03 05:01:46;;;;;;;2.13;1.17;;;;;;;14.36;100.00;99598.81;4974175;28;20186;-85
2023/08/03 05:04:12;;;;;;;2.60;1.00;;;;;;;14.94;100.00;99662.00;4969992;28;20571;-84
2023/08/03 05:06:37;;;;;;;1.70;0.90;;;;;;;14.41;100.00;99610.47;4974051;28;20565;-87
2023/08/03 05:09:03;;;;;;;1.73;1.03;;;;;;;13.89;100.00;99476.19;4966453;28;20218;-87
2023/08/03 05:11:28;;;;;;;2.80;1.07;;;;;;;13.81;100.00;99451.56;4974249;28;20204;-87
2023/08/03 05:13:53;;;;;;;2.83;1.17;;;;;;;14.72;100.00;99620.75;4974521;28;20619;-85
2023/08/03 05:16:24;;;;;;;1.57;0.90;;;;;;;14.76;100.00;99667.78;4973536;28;20671;-85
2023/08/03 05:18:50;;;;;;;2.80;1.03;;;;;;;15.29;100.00;99739.84;4969385;28;20225;-86
2023/08/03 05:21:15;;;;;;;1.50;0.80;;;;;;;15.15;100.00;99727.81;4973459;28;20450;-84
2023/08/03 05:23:40;;;;;;;1.43;0.80;;;;;;;14.18;100.00;99538.75;4970675;28;20757;-85
2023/08/03 05:26:06;;;;;;;2.10;0.80;;;;;;;14.98;100.00;99705.50;4973747;28;20825;-86
2023/08/03 05:28:32;;;;;;;1.60;0.70;;;;;;;15.21;100.00;99713.28;4974538;28;20573;-85
2023/08/03 05:30:57;;;;;;;2.00;0.80;;;;;;;15.55;100.00;99713.84;4974576;28;20332;-86
2023/08/03 05:33:23;;;;;;;1.40;0.70;;;;;;;15.15;100.00;99690.81;4973491;28;20685;-85
2023/08/03 05:35:48;;;;;;;1.47;0.70;;;;;;;14.29;100.00;99522.66;4975335;28;20210;-85
2023/08/03 05:38:17;;;;;;;1.10;0.70;;;;;;;15.07;100.00;99677.81;4979848;28;20232;-83
2023/08/03 05:40:42;;;;;;;1.40;0.73;;;;;;;16.70;100.00;99926.22;4978414;28;20197;-86
2023/08/03 05:43:10;;;;;;;2.60;1.00;;;;;;;14.23;100.00;99556.84;4973574;28;20444;-85
2023/08/03 05:45:48;;;;;;;3.03;1.00;;;;;;;16.74;100.00;99894.81;4980831;28;20245;-83
2023/08/03 05:48:15;;;;;;;2.27;1.00;;;;;;;16.70;100.00;99899.94;4978714;28;20758;-86
2023/08/03 05:50:46;;;;;;;2.70;1.00;;;;;;;14.25;100.00;99512.38;4974758;28;20522;-86
2023/08/03 05:53:12;;;;;;;2.70;0.80;;;;;;;14.77;100.00;99637.03;4973650;28;20446;-85
2023/08/03 05:55:38;;;;;;;1.57;1.10;;;;;;;14.94;100.00;99635.00;4970632;28;20503;-86
2023/08/03 05:58:05;;;;;;;2.37;0.80;;;;;;;13.89;100.00;99461.88;4972760;28;20994;-87
2023/08/03 06:00:30;;;;;;;1.80;0.90;;;;;;;13.90;100.00;99458.13;4973618;28;20472;-86
2023/08/03 06:02:57;;;;;;;1.50;0.80;;;;;;;16.25;100.00;99893.13;4978768;28;21383;-85
2023/08/03 06:05:38;;;;;;;2.67;1.20;;;;;;;16.64;100.00;99909.13;4972097;28;20602;-86
2023/08/03 06:08:13;;;;;;;2.03;1.00;;;;;;;14.31;100.00;99566.38;4977252;28;20592;-82
2023/08/03 06:10:39;;;;;;;2.03;0.90;;;;;;;15.33;100.00;99746.38;4970860;28;20452;-87
2023/08/03 06:13:05;;;;;;;1.50;0.90;;;;;;;15.10;100.00;99688.09;4983425;28;20456;-84
2023/08/03 06:15:30;;;;;;;3.50;1.10;;;;;;;16.80;100.00;99931.69;4972578;28;20503;-84
2023/08/03 06:18:02;;;;;;;1.83;0.90;;;;;;;15.58;100.00;99793.59;4972062;28;20301;-86
2023/08/03 06:20:27;;;;;;;1.87;1.03;;;;;;;14.07;100.00;99514.63;4971006;28;20687;-85
2023/08/03 06:22:53;;;;;;;1.33;1.07;;;;;;;15.11;100.00;99722.13;4971226;28;20448;-85
2023/08/03 06:25:21;;;;;;;2.90;1.00;;;;;;;14.98;100.00;99689.31;4974790;28;20217;-87
2023/08/03 06:27:48;;;;;;;2.47;0.83;;;;;;;14.97;100.00;99706.59;4975749;28;20289;-86
2023/08/03 06:30:14;;;;;;;2.27;1.10;;;;;;;14.96;100.00;99704.97;4973300;28;20479;-87
2023/08/03 06:32:39;;;;;;;2.13;1.20;;;;;;;14.96;100.00;99694.16;4970657;28;20933;-85
2023/08/03 06:35:20;;;;;;;1.70;0.97;;;;;;;15.00;100.00;99716.88;4972557;28;20449;-85
2023/08/03 06:37:46;;;;;;;1.80;1.00;;;;;;;15.63;100.00;99803.66;4974931;28;20217;-86
2023/08/03 06:40:11;;;;;;;1.90;1.07;;;;;;;16.77;100.00;99996.41;4970343;28;20945;-86
2023/08/03 06:42:38;;;;;;;2.13;0.90;;;;;;;15.74;100.00;99818.91;4970584;28;20276;-84
2023/08/03 06:45:04;;;;;;;2.73;1.10;;;;;;;15.05;100.00;99698.03;4973314;28;20205;-87
2023/08/03 06:47:30;;;;;;;2.87;0.93;;;;;;;16.07;100.00;99852.16;4972759;28;20929;-86
2023/08/03 06:49:55;;;;;;;4.20;1.27;;;;;;;15.37;100.00;99755.59;4970167;28;20465;-85
2023/08/03 06:52:20;;;;;;;2.17;1.10;;;;;;;14.31;100.00;99563.69;4969750;28;20313;-84
2023/08/03 06:54:46;;;;;;;2.40;1.07;;;;;;;14.51;100.00;99595.44;4970449;28;20247;-81
2023/08/03 06:57:11;;;;;;;1.67;0.90;;;;;;;14.12;100.00;99510.13;4970552;28;20220;-84
2023/08/03 06:59:37;;;;;;;2.07;1.13;;;;;;;14.52;100.00;99634.88;4974481;28;20862;-86
2023/08/03 07:02:02;;;;;;;2.37;1.10;;;;;;;14.29;100.00;99574.75;4970324;28;20643;-82
2023/08/03 07:04:28;;;;;;;1.80;0.80;;;;;;;15.81;100.00;99804.09;4971178;28;21171;-81
2023/08/03 07:06:53;;;;;;;1.47;0.70;;;;;;;14.43;100.00;99611.00;4972791;28;20208;-85
2023/08/03 07:09:19;;;;;;;2.30;0.93;;;;;;;17.01;100.00;99981.41;4972541;28;20237;-81
2023/08/03 07:11:44;;;;;;;1.60;0.80;;;;;;;15.88;100.00;99812.00;4968683;28;20208;-84
2023/08/03 07:14:09;;;;;;;1.50;0.80;;;;;;;14.50;100.00;99585.72;4970924;28;20193;-82
2023/08/03 07:16:36;;;;;;;1.77;0.80;;;;;;;15.20;100.00;99656.84;4968885;28;20246;-83
2023/08/03 07:19:02;;;;;;;1.40;0.73;;;;;;;15.77;100.00;99770.53;4974892;28;20224;-83
2023/08/03 07:21:27;;;;;;;2.50;0.93;;;;;;;15.34;100.00;99698.56;4973867;28;20482;-86
2023/08/03 07:23:53;;;;;;;1.20;0.60;;;;;;;15.51;100.00;99706.53;4971934;28;20193;-80
2023/08/03 07:26:18;;;;;;;1.30;0.60;;;;;;;15.42;100.00;99703.50;4970382;28;20741;-83
2023/08/03 07:28:44;;;;;;;2.53;0.80;;;;;;;15.49;100.00;99703.25;4971139;28;20237;-84
2023/08/03 07:31:16;;;;;;;2.57;0.70;;;;;;;15.26;100.00;99677.41;4972273;28;20203;-85
2023/08/03 07:33:41;;;;;;;1.33;0.80;;;;;;;16.08;100.00;99797.78;4970911;28;20273;-86
2023/08/03 07:36:06;;;;;;;1.47;0.70;;;;;;;15.49;100.00;99625.69;4971650;28;20556;-86
2023/08/03 07:38:32;;;;;;;2.03;0.80;;;;;;;15.59;100.00;99700.63;4969347;28;20218;-85
2023/08/03 07:40:57;;;;;;;1.40;0.60;;;;;;;15.53;100.00;99694.34;4970497;28;20194;-83
2023/08/03 07:43:23;;;;;;;3.93;0.90;;;;;;;14.42;100.00;99492.56;4971906;28;20535;-83
2023/08/03 07:45:48;;;;;;;2.93;0.70;;;;;;;14.39;100.00;99491.19;4971565;28;20532;-84
2023/08/03 07:48:14;;;;;;;1.53;0.73;;;;;;;16.14;100.00;99795.94;4972266;28;20189;-85
2023/08/03 07:50:39;;;;;;;3.43;0.80;;;;;;;15.22;100.00;99704.13;4973134;28;20202;-82
2023/08/03 07:53:05;;;;;;;1.33;0.70;;;;;;;15.11;100.00;99657.31;4970128;28;20189;-91
2023/08/03 07:55:33;;;;;;;1.30;0.60;;;;;;;15.03;100.00;99695.56;4975980;28;20680;-88
2023/08/03 07:57:58;;;;;;;1.80;0.80;;;;;;;14.59;100.00;99595.84;4974943;28;20201;-86
2023/08/03 08:00:25;;;;;;;2.17;0.60;;;;;;;14.22;100.00;99583.00;4972809;28;21418;-87
2023/08/03 08:02:50;;;;;;;1.50;0.70;;;;;;;14.31;100.00;99596.06;4972908;28;20189;-87
2023/08/03 08:05:15;;;;;;;3.23;0.70;;;;;;;15.99;100.00;99821.78;4973525;28;20460;-87
2023/08/03 08:07:41;;;;;;;3.47;0.60;;;;;;;15.12;100.00;99731.84;4975362;28;20287;-85
2023/08/03 08:10:07;;;;;;;1.40;0.50;;;;;;;15.74;100.00;99768.34;4970974;28;20675;-86
2023/08/03 08:12:32;;;;;;;4.03;0.90;;;;;;;14.67;100.00;99643.94;4973224;28;20664;-86
2023/08/03 08:14:58;;;;;;;2.40;0.60;;;;;;;15.33;100.00;99732.88;4974085;28;20849;-86
2023/08/03 08:17:24;;;;;;;2.20;0.70;;;;;;;14.61;100.00;99607.19;4971101;28;21062;-84
2023/08/03 08:19:49;;;;;;;2.30;0.80;;;;;;;15.42;100.00;99752.13;4973917;28;20484;-87
2023/08/03 08:22:15;;;;;;;1.93;0.70;;;;;;;15.08;100.00;99706.44;4975411;28;20620;-86
2023/08/03 08:24:41;;;;;;;3.03;0.70;;;;;;;15.14;100.00;99681.09;4975123;28;20624;-85
2023/08/03 08:27:06;;;;;;;2.30;0.80;;;;;;;15.09;100.00;99670.25;4973939;28;20329;-86
2023/08/03 08:29:32;;;;;;;2.90;1.13;;;;;;;14.94;100.00;99623.41;4974775;28;21026;-86
2023/08/03 08:31:58;;;;;;;4.73;0.90;;;;;;;14.61;100.00;99538.88;4972713;28;20766;-85
2023/08/03 08:34:23;;;;;;;2.57;1.00;;;;;;;17.28;100.00;99953.34;4973508;28;20447;-85
2023/08/03 08:36:51;;;;;;;4.33;1.27;;;;;;;15.69;100.00;99727.75;4973071;28;20641;-84
2023/08/03 08:39:17;;;;;;;3.73;1.17;;;;;;;16.18;100.00;99776.22;4974908;28;20296;-85
2023/08/03 08:41:42;;;;;;;2.07;0.90;;;;;;;14.89;100.00;99543.97;4968221;28;20441;-85
2023/08/03 08:44:14;;;;;;;3.17;0.93;;;;;;;14.98;100.00;99590.22;4973030;28;20240;-86
2023/08/03 08:46:43;;;;;;;3.87;1.40;;;;;;;17.75;100.00;99980.34;4974466;28;20192;-85
2023/08/03 08:49:09;;;;;;;3.73;0.80;;;;;;;16.11;100.00;99747.75;4974150;28;20598;-85
2023/08/03 08:51:36;;;;;;;4.50;1.20;;;;;;;15.35;100.00;99601.03;4975238;28;20960;-87
2023/08/03 08:54:02;;;;;;;6.40;1.53;;;;;;;16.41;100.00;99822.91;4973985;28;20201;-85
2023/08/03 08:56:27;;;;;;;2.20;0.90;;;;;;;15.91;100.00;99688.97;4969559;28;20470;-85
2023/08/03 08:58:53;;;;;;;3.33;1.03;;;;;;;15.44;100.00;99585.13;4972169;28;20209;-84
2023/08/03 09:01:18;;;;;;;3.47;0.90;;;;;;;15.98;100.00;99730.13;4972345;28;20614;-86
2023/08/03 09:03:47;;;;;;;3.93;1.30;;;;;;;15.95;100.00;99730.66;4972012;28;20236;-86
2023/08/03 09:06:13;;;;;;;2.00;0.77;;;;;;;15.96;100.00;99716.84;4973975;28;20560;-85
2023/08/03 09:08:51;;;;;;;3.87;0.90;;;;;;;17.95;100.00;100035.78;4970657;28;20465;-86
2023/08/03 09:11:17;;;;;;;3.17;1.07;;;;;;;16.57;100.00;99802.94;4973115;28;20188;-85
2023/08/03 09:13:45;;;;;;;2.43;0.80;;;;;;;16.49;100.00;99798.84;4972350;28;20472;-82
2023/08/03 09:16:26;;;;;;;3.43;0.90;;;;;;;17.12;100.00;99868.47;4972014;28;20215;-85
2023/08/03 09:18:52;;;;;;;5.33;1.53;;;;;;;16.70;100.00;99816.00;4970025;28;20476;-84
2023/08/03 09:21:19;;;;;;;3.43;1.23;;;;;;;16.42;100.00;99794.75;4972112;28;20868;-84
2023/08/03 09:23:45;;;;;;;5.27;0.93;;;;;;;15.92;100.00;99658.97;4971780;28;20186;-82
2023/08/03 09:26:11;;;;;;;2.90;1.10;;;;;;;16.25;100.00;99725.38;4977061;28;20461;-83
2023/08/03 09:28:38;;;;;;;3.93;1.20;;;;;;;17.45;100.00;99888.91;4961352;28;20571;-82
2023/08/03 09:31:06;;;;;;;5.80;1.30;;;;;;;15.97;100.00;99613.03;4971850;28;20572;-84
2023/08/03 09:33:32;;;;;;;3.67;0.80;;;;;;;17.60;100.00;99852.88;4969013;28;20460;-85
2023/08/03 09:36:10;;;;;;;4.80;1.30;;;;;;;16.95;100.00;99768.44;4979102;28;20884;-80
2023/08/03 09:38:37;;;;;;;3.40;1.10;;;;;;;16.56;100.00;99709.28;4974393;28;20456;-85
2023/08/03 09:41:02;;;;;;;3.80;0.97;;;;;;;18.01;100.00;99932.41;4973817;28;20453;-85
2023/08/03 09:43:28;;;;;;;2.63;0.80;;;;;;;16.16;100.00;99571.97;4975079;28;20440;-86
2023/08/03 09:45:56;;;;;;;4.87;1.13;;;;;;;18.80;100.00;99991.88;4973639;28;20193;-84
2023/08/03 09:48:22;;;;;;;6.20;1.50;;;;;;;17.06;100.00;99726.75;4970672;28;20445;-85
2023/08/03 09:50:51;;;;;;;3.20;1.00;;;;;;;17.58;100.00;99792.66;4967626;28;20457;-85
2023/08/03 09:53:21;;;;;;;3.20;1.10;;;;;;;17.30;100.00;99696.41;4971946;28;20468;-84
2023/08/03 09:55:53;;;;;;;3.43;1.43;;;;;;;16.80;100.00;99625.69;4969730;28;20436;-87
2023/08/03 09:58:23;;;;;;;5.77;1.47;;;;;;;17.31;100.00;99727.88;4969418;28;20433;-82
2023/08/03 10:00:50;;;;;;;6.30;1.50;;;;;;;16.40;100.00;99581.22;4973053;28;20966;-84
2023/08/03 10:03:18;;;;;;;4.03;1.10;;;;;;;18.77;100.00;99943.53;4971119;28;20536;-85
2023/08/03 10:05:59;;;;;;;5.00;1.67;;;;;;;16.72;100.00;99655.97;4972676;28;21036;-83
2023/08/03 10:08:49;;;;;;;4.60;1.23;;;;;;;16.91;100.00;99615.69;4969062;28;20468;-85
2023/08/03 10:11:15;;;;;;;3.50;1.30;;;;;;;17.57;100.00;99718.66;4972259;28;20425;-83
2023/08/03 10:13:45;;;;;;;5.30;1.47;;;;;;;17.53;100.00;99727.59;4973312;28;20448;-83
2023/08/03 10:16:11;;;;;;;2.80;1.10;;;;;;;16.53;100.00;99500.59;4973730;28;20202;-81
2023/08/03 10:18:37;;;;;;;3.97;1.50;;;;;;;17.70;100.00;99664.94;4969286;28;20458;-83
2023/08/03 10:21:04;;;;;;;6.00;1.93;;;;;;;18.47;100.00;99787.69;4970303;28;20440;-83
2023/08/03 10:23:30;;;;;;;6.90;1.73;;;;;;;17.30;100.00;99578.00;4972261;28;20943;-82
2023/08/03 10:25:57;;;;;;;7.73;2.23;;;;;;;19.39;100.00;99912.34;4968704;28;20448;-83
2023/08/03 10:28:25;;;;;;;9.00;1.70;;;;;;;17.52;100.00;99593.94;4962444;28;20194;-81
2023/08/03 10:31:15;;;;;;;3.70;1.20;;;;;;;19.53;100.00;99905.19;4963729;28;20434;-81
2023/08/03 10:33:47;;;;;;;3.17;1.30;;;;;;;19.59;100.00;99909.50;4968337;28;20898;-83
2023/08/03 10:36:27;;;;;;;5.13;1.50;;;;;;;19.32;100.00;99909.09;4966145;28;20555;-83
2023/08/03 10:39:03;;;;;;;8.53;2.07;;;;;;;19.48;100.00;99901.69;4964685;28;20468;-83
2023/08/03 10:41:50;;;;;;;5.23;1.90;;;;;;;19.43;100.00;99867.97;4964380;28;20435;-82
2023/08/03 10:44:20;;;;;;;6.10;1.90;;;;;;;19.47;100.00;99906.31;4961227;28;20452;-84
2023/08/03 10:46:50;;;;;;;7.00;1.70;;;;;;;18.32;100.00;99757.91;4967742;28;20460;-80
2023/08/03 10:49:22;;;;;;;7.20;1.70;;;;;;;19.47;100.00;99900.06;4962025;28;20476;-83
2023/08/03 10:51:50;;;;;;;6.50;2.10;;;;;;;18.19;100.00;99694.94;4971821;28;20484;-82
2023/08/03 10:54:29;;;;;;;3.50;1.37;;;;;;;16.65;100.00;99447.78;4972042;28;20448;-81
2023/08/03 10:57:05;;;;;;;4.83;1.50;;;;;;;18.10;100.00;99687.66;4970287;28;20564;-83
2023/08/03 10:59:48;;;;;;;5.97;2.00;;;;;;;18.55;100.00;99715.72;4966428;28;20927;-81
2023/08/03 11:02:28;;;;;;;4.73;1.27;;;;;;;19.62;100.00;99879.03;4970339;28;20445;-82
2023/08/03 11:05:04;;;;;;;7.50;1.60;;;;;;;17.30;100.00;99468.78;4969820;28;20437;-83
2023/08/03 11:07:34;;;;;;;5.77;1.40;;;;;;;18.54;100.00;99714.88;4968311;28;20443;-79
2023/08/03 11:10:04;;;;;;;4.90;1.23;;;;;;;17.23;100.00;99458.25;4963821;28;20552;-82
2023/08/03 11:12:31;;;;;;;4.40;1.70;;;;;;;19.67;100.00;99885.53;4970068;28;20470;-80
2023/08/03 11:14:57;;;;;;;4.40;1.40;;;;;;;19.03;100.00;99762.22;4973831;28;20535;-85
2023/08/03 11:17:27;;;;;;;3.70;1.30;;;;;;;17.94;100.00;99638.88;4970138;28;20531;-82
2023/08/03 11:19:54;;;;;;;3.73;1.13;;;;;;;17.17;100.00;99486.44;4968355;28;20751;-82
2023/08/03 11:22:21;;;;;;;4.70;1.53;;;;;;;19.93;100.00;99921.56;4971490;28;20452;-82
2023/08/03 11:24:51;;;;;;;5.60;1.50;;;;;;;18.26;100.00;99683.81;4971754;28;20452;-79